Time;durP1;ratioP1;P1;durP2;ratioP2;P2;SDS_P1;SDS_P2;PMS_P1;PMS_P2;Temp;Humidity;BMP_temperature;BMP_pressure;BME280_temperature;BME280_humidity;BME280_pressure;Samples;Min_cycle;Max_cycle;Signal;HPM_P1;HPM_P2
2023/05/03 00:01:40;;;;;;;5.47;1.52;;;8.60;92.40;;;;;;5012832;28;20472;-70
2023/05/03 00:04:06;;;;;;;6.20;1.55;;;8.50;92.60;;;;;;5012423;28;20462;-69
2023/05/03 00:06:31;;;;;;;6.60;1.80;;;8.50;92.80;;;;;;5012264;28;20167;-69
2023/05/03 00:08:57;;;;;;;8.75;2.05;;;8.40;92.90;;;;;;5012406;28;20033;-69
2023/05/03 00:11:23;;;;;;;9.05;2.00;;;8.40;93.00;;;;;;5012219;28;20379;-70
2023/05/03 00:13:48;;;;;;;6.50;2.10;;;8.40;93.10;;;;;;5012644;28;20432;-68
2023/05/03 00:16:14;;;;;;;2.50;1.52;;;8.30;93.20;;;;;;5012101;28;20045;-70
2023/05/03 00:18:39;;;;;;;6.03;2.03;;;8.30;93.30;;;;;;4995090;28;20026;-76
2023/05/03 00:21:05;;;;;;;4.85;1.73;;;8.40;93.30;;;;;;5012099;28;20119;-71
2023/05/03 00:23:31;;;;;;;6.75;2.13;;;8.20;93.40;;;;;;5012250;28;20053;-71
2023/05/03 00:25:57;;;;;;;4.13;1.55;;;8.20;93.40;;;;;;4994452;28;20058;-72
2023/05/03 00:28:24;;;;;;;10.80;2.47;;;8.00;93.40;;;;;;4992887;28;20109;-69
2023/05/03 00:30:50;;;;;;;6.47;2.63;;;8.00;93.70;;;;;;4992337;28;20118;-69
2023/05/03 00:33:16;;;;;;;6.63;2.10;;;8.00;93.80;;;;;;4992300;28;20050;-79
2023/05/03 00:35:43;;;;;;;5.03;2.10;;;8.00;93.80;;;;;;4992063;28;20045;-71
2023/05/03 00:38:08;;;;;;;5.80;1.98;;;7.90;93.90;;;;;;4992056;28;20258;-74
2023/05/03 00:40:34;;;;;;;6.88;2.00;;;7.90;94.00;;;;;;4992525;28;20022;-69
2023/05/03 00:43:00;;;;;;;4.93;2.10;;;7.80;94.10;;;;;;4992217;28;20266;-75
2023/05/03 00:45:26;;;;;;;8.65;2.15;;;7.70;94.20;;;;;;4992195;28;20041;-70
2023/05/03 00:47:51;;;;;;;7.35;1.80;;;7.70;94.30;;;;;;4992093;28;20076;-77
2023/05/03 00:50:17;;;;;;;10.77;2.15;;;7.70;94.40;;;;;;4974405;28;20368;-70
2023/05/03 00:52:44;;;;;;;8.18;1.90;;;7.60;94.50;;;;;;4992055;28;20035;-70
2023/05/03 00:55:10;;;;;;;2.70;1.50;;;7.60;94.60;;;;;;4991686;28;20096;-69
2023/05/03 00:57:36;;;;;;;10.90;2.20;;;7.60;94.60;;;;;;4991892;28;20113;-75
2023/05/03 01:00:02;;;;;;;6.78;1.90;;;7.60;94.70;;;;;;4990939;28;20125;-77
2023/05/03 01:02:28;;;;;;;4.53;1.65;;;7.60;94.80;;;;;;4990620;28;20338;-77
2023/05/03 01:04:54;;;;;;;4.25;2.22;;;7.50;94.80;;;;;;4991924;28;20080;-70
2023/05/03 01:07:44;;;;;;;4.68;2.47;;;7.40;95.00;;;;;;4974258;28;20027;-71
2023/05/03 01:10:30;;;;;;;8.05;1.85;;;7.50;94.90;;;;;;4991143;28;20480;-70
2023/05/03 01:14:04;;;;;;;6.88;2.72;;;7.50;94.90;;;;;;4974422;28;20061;-70
2023/05/03 01:16:33;;;;;;;7.20;2.13;;;7.40;95.00;;;;;;4878197;29;20330;-71
2023/05/03 01:19:07;;;;;;;5.57;2.00;;;7.40;95.30;;;;;;4912319;29;20032;-70
2023/05/03 01:21:34;;;;;;;5.85;2.75;;;7.30;95.40;;;;;;4965884;28;20022;-70
2023/05/03 01:24:10;;;;;;;7.57;2.17;;;7.30;95.50;;;;;;5001230;28;20045;-71
2023/05/03 01:26:36;;;;;;;7.10;2.10;;;7.20;95.60;;;;;;4991527;28;20034;-70
2023/05/03 01:29:01;;;;;;;8.73;2.40;;;7.30;95.60;;;;;;4991346;28;20132;-71
2023/05/03 01:32:00;;;;;;;4.03;2.20;;;7.30;95.70;;;;;;4991522;28;20049;-71
2023/05/03 01:34:34;;;;;;;7.00;2.42;;;7.30;95.70;;;;;;5011182;28;20081;-71
2023/05/03 01:37:03;;;;;;;5.45;1.90;;;7.20;95.80;;;;;;5028460;28;20494;-71
2023/05/03 01:39:41;;;;;;;8.20;2.25;;;7.20;95.90;;;;;;5013002;28;20352;-70
2023/05/03 01:42:07;;;;;;;7.35;2.40;;;7.20;95.90;;;;;;5030634;28;20112;-70
2023/05/03 01:44:33;;;;;;;5.57;1.85;;;7.20;95.90;;;;;;5030611;28;20045;-71
2023/05/03 01:47:01;;;;;;;5.10;2.15;;;7.20;95.90;;;;;;5030583;28;20034;-70
2023/05/03 01:49:26;;;;;;;4.95;1.98;;;7.20;96.00;;;;;;5031330;28;20033;-71
2023/05/03 01:51:52;;;;;;;9.13;2.30;;;7.20;96.00;;;;;;5030730;28;20410;-71
2023/05/03 01:54:18;;;;;;;9.98;2.55;;;7.20;96.00;;;;;;5030732;28;20124;-71
2023/05/03 01:56:44;;;;;;;9.50;2.38;;;7.20;96.10;;;;;;5030406;28;20041;-71
2023/05/03 01:59:09;;;;;;;8.30;2.47;;;7.10;96.30;;;;;;5012960;28;20113;-71
2023/05/03 02:01:35;;;;;;;10.35;2.20;;;7.20;96.30;;;;;;5030832;28;20105;-70
2023/05/03 02:04:01;;;;;;;3.63;2.17;;;7.20;96.20;;;;;;5030379;28;20038;-70
2023/05/03 02:06:27;;;;;;;8.05;2.95;;;7.20;96.20;;;;;;5030392;28;20611;-70
2023/05/03 02:08:53;;;;;;;5.63;2.88;;;7.20;96.20;;;;;;5030303;28;20044;-70
2023/05/03 02:11:20;;;;;;;9.82;2.45;;;7.20;96.20;;;;;;5030704;28;20029;-71
2023/05/03 02:13:48;;;;;;;9.07;2.80;;;7.10;96.40;;;;;;5030885;28;20435;-71
2023/05/03 02:16:13;;;;;;;7.65;2.65;;;7.10;96.40;;;;;;5030535;28;20113;-69
2023/05/03 02:18:39;;;;;;;5.82;2.83;;;7.10;96.50;;;;;;5030124;28;20488;-69
2023/05/03 02:21:05;;;;;;;7.38;2.88;;;7.10;96.60;;;;;;5031752;28;20033;-70
2023/05/03 02:23:31;;;;;;;9.20;2.33;;;7.10;96.80;;;;;;5033782;28;20029;-71
2023/05/03 02:25:57;;;;;;;10.50;2.88;;;7.10;96.50;;;;;;5033958;28;20029;-69
2023/05/03 02:28:23;;;;;;;7.75;2.90;;;7.10;96.50;;;;;;5034393;28;20029;-70
2023/05/03 02:30:49;;;;;;;5.97;2.15;;;7.20;96.50;;;;;;5033751;28;20348;-70
2023/05/03 02:33:14;;;;;;;5.55;2.30;;;7.10;96.30;;;;;;5033799;28;20037;-70
2023/05/03 02:35:40;;;;;;;13.55;2.97;;;7.20;96.40;;;;;;5033599;28;20033;-71
2023/05/03 02:38:06;;;;;;;6.63;2.65;;;7.20;96.50;;;;;;5033668;28;20151;-70
2023/05/03 02:40:32;;;;;;;5.68;2.28;;;7.10;96.40;;;;;;5034376;28;20478;-70
2023/05/03 02:42:57;;;;;;;4.53;2.20;;;7.10;96.40;;;;;;5033787;28;20367;-71
2023/05/03 02:45:23;;;;;;;12.70;2.85;;;7.10;96.40;;;;;;5033487;28;20040;-70
2023/05/03 02:47:49;;;;;;;5.38;2.30;;;7.20;96.30;;;;;;5033421;28;20044;-71
2023/05/03 02:50:14;;;;;;;4.57;2.60;;;7.20;96.30;;;;;;5015604;28;20387;-70
2023/05/03 02:52:40;;;;;;;6.65;2.50;;;7.10;96.30;;;;;;5033788;28;20097;-70
2023/05/03 02:55:06;;;;;;;8.45;2.58;;;7.10;96.50;;;;;;5033372;28;20025;-71
2023/05/03 02:57:32;;;;;;;10.13;2.55;;;7.10;96.70;;;;;;5033478;28;20471;-71
2023/05/03 02:59:57;;;;;;;11.50;2.63;;;7.10;96.70;;;;;;5033654;28;20045;-71
2023/05/03 03:02:23;;;;;;;5.45;2.65;;;7.10;96.70;;;;;;5033043;28;20442;-70
2023/05/03 03:04:49;;;;;;;9.13;2.45;;;7.10;96.60;;;;;;5033954;28;20048;-71
2023/05/03 03:07:15;;;;;;;8.20;2.97;;;7.10;96.80;;;;;;5015379;28;20025;-72
2023/05/03 03:09:40;;;;;;;8.25;2.85;;;7.10;96.60;;;;;;5033036;28;20033;-71
2023/05/03 03:12:06;;;;;;;11.60;2.83;;;7.10;96.70;;;;;;5033092;28;20095;-71
2023/05/03 03:14:31;;;;;;;9.20;2.70;;;7.10;96.70;;;;;;5033588;28;20030;-71
2023/05/03 03:16:57;;;;;;;9.10;3.35;;;7.10;96.70;;;;;;5015572;28;20436;-71
2023/05/03 03:19:23;;;;;;;6.25;2.97;;;7.10;96.80;;;;;;5033490;28;20101;-71
2023/05/03 03:21:49;;;;;;;7.03;3.05;;;7.00;96.80;;;;;;5015697;28;20522;-71
2023/05/03 03:24:15;;;;;;;6.40;2.88;;;7.00;96.80;;;;;;5015260;28;20063;-70
2023/05/03 03:26:40;;;;;;;9.65;3.35;;;7.10;96.70;;;;;;5032625;28;20033;-71
2023/05/03 03:29:08;;;;;;;5.15;2.80;;;7.10;96.80;;;;;;5032696;28;20527;-70
2023/05/03 03:31:34;;;;;;;6.10;2.83;;;7.00;96.80;;;;;;5015253;28;20030;-72
2023/05/03 03:34:00;;;;;;;10.18;3.58;;;7.00;96.80;;;;;;5032763;28;20026;-71
2023/05/03 03:36:26;;;;;;;11.27;3.13;;;7.00;97.00;;;;;;5032684;28;20087;-71
2023/05/03 03:38:52;;;;;;;7.88;3.58;;;7.10;96.80;;;;;;5032308;28;20034;-71
2023/05/03 03:41:18;;;;;;;9.88;3.88;;;7.10;96.70;;;;;;5032473;28;20043;-71
2023/05/03 03:43:44;;;;;;;9.65;3.70;;;7.10;96.80;;;;;;5033211;28;20025;-71
2023/05/03 03:46:10;;;;;;;10.40;3.20;;;7.10;96.70;;;;;;5032529;28;20052;-71
2023/05/03 03:48:35;;;;;;;10.60;3.92;;;7.10;97.00;;;;;;5014838;28;20029;-71
2023/05/03 03:51:01;;;;;;;11.15;4.25;;;7.20;96.80;;;;;;5032193;28;20053;-70
2023/05/03 03:53:26;;;;;;;7.55;3.78;;;7.20;96.80;;;;;;5032354;28;20041;-71
2023/05/03 03:55:52;;;;;;;15.43;3.58;;;7.20;96.70;;;;;;5015180;28;20421;-71
2023/05/03 03:58:18;;;;;;;8.15;3.67;;;7.20;96.70;;;;;;5032353;28;20029;-70
2023/05/03 04:00:44;;;;;;;7.88;3.70;;;7.20;96.70;;;;;;5032150;28;20052;-71
2023/05/03 04:03:09;;;;;;;8.60;3.90;;;7.20;96.80;;;;;;5032161;28;20060;-71
2023/05/03 04:05:35;;;;;;;12.65;4.38;;;7.20;96.80;;;;;;5031965;28;20095;-71
2023/05/03 04:08:00;;;;;;;6.38;3.97;;;7.20;96.80;;;;;;5031858;28;20030;-72
2023/05/03 04:10:26;;;;;;;8.82;3.97;;;7.20;96.90;;;;;;5014972;28;20037;-71
2023/05/03 04:12:52;;;;;;;8.05;3.90;;;7.20;96.90;;;;;;5014109;28;20427;-70
2023/05/03 04:15:18;;;;;;;7.72;4.72;;;7.20;96.80;;;;;;5031813;28;20468;-72
2023/05/03 04:17:43;;;;;;;10.00;4.40;;;7.30;96.90;;;;;;5032061;28;20072;-71
2023/05/03 04:20:10;;;;;;;13.00;3.67;;;7.30;96.80;;;;;;5031753;28;20021;-72
2023/05/03 04:22:39;;;;;;;12.73;4.03;;;7.30;96.60;;;;;;5014863;28;20098;-71
2023/05/03 04:25:07;;;;;;;6.72;4.07;;;7.30;96.70;;;;;;5014208;28;20034;-71
2023/05/03 04:27:34;;;;;;;9.48;4.05;;;7.20;96.60;;;;;;5031802;28;20234;-71
2023/05/03 04:30:00;;;;;;;8.68;3.90;;;7.30;96.90;;;;;;5031713;28;20042;-72
2023/05/03 04:32:25;;;;;;;8.77;4.53;;;7.20;97.00;;;;;;5031559;28;20450;-75
2023/05/03 04:34:53;;;;;;;15.52;4.53;;;7.10;97.10;;;;;;5032195;28;20112;-71
2023/05/03 04:37:19;;;;;;;11.50;4.18;;;7.20;97.10;;;;;;5031639;28;20067;-73
2023/05/03 04:39:45;;;;;;;13.63;4.82;;;7.10;97.20;;;;;;5031433;28;20411;-72
2023/05/03 04:42:14;;;;;;;15.00;4.47;;;7.20;97.40;;;;;;5031378;28;20040;-72
2023/05/03 04:44:43;;;;;;;7.60;4.60;;;7.30;97.20;;;;;;5030727;28;20033;-72
2023/05/03 04:47:09;;;;;;;14.35;5.35;;;7.20;97.20;;;;;;5013603;28;20021;-72
2023/05/03 04:49:35;;;;;;;11.95;4.00;;;7.10;97.40;;;;;;5031652;28;20018;-70
2023/05/03 04:52:01;;;;;;;21.60;5.20;;;7.20;97.60;;;;;;5031127;28;20025;-72
2023/05/03 04:54:27;;;;;;;13.57;4.80;;;7.20;97.40;;;;;;5031377;28;20038;-74
2023/05/03 04:56:54;;;;;;;13.90;5.40;;;7.20;97.50;;;;;;5031160;28;20041;-71
2023/05/03 04:59:19;;;;;;;6.38;3.90;;;7.20;97.40;;;;;;5031259;28;20037;-72
2023/05/03 05:01:45;;;;;;;11.52;4.82;;;7.20;97.40;;;;;;5031652;28;20352;-71
2023/05/03 05:04:11;;;;;;;13.10;5.13;;;7.20;97.60;;;;;;5013693;28;20090;-73
2023/05/03 05:06:37;;;;;;;14.60;5.00;;;7.30;97.60;;;;;;5031027;28;20029;-73
2023/05/03 05:09:06;;;;;;;10.82;4.90;;;7.40;97.60;;;;;;5030794;28;20041;-72
2023/05/03 05:11:32;;;;;;;11.55;4.65;;;7.50;97.40;;;;;;5031024;28;20048;-72
2023/05/03 05:13:57;;;;;;;20.33;5.13;;;7.60;97.10;;;;;;5030870;28;20030;-74
2023/05/03 05:16:23;;;;;;;12.27;4.57;;;7.60;97.50;;;;;;5031361;28;20119;-71
2023/05/03 05:18:48;;;;;;;11.63;4.65;;;7.60;97.50;;;;;;5030908;28;20443;-70
2023/05/03 05:21:14;;;;;;;12.20;4.55;;;7.70;97.30;;;;;;5013112;28;20486;-69
2023/05/03 05:23:40;;;;;;;17.30;5.93;;;7.80;97.10;;;;;;5030416;28;20120;-70
2023/05/03 05:26:06;;;;;;;17.25;4.57;;;7.90;96.90;;;;;;5013106;28;20172;-70
2023/05/03 05:28:32;;;;;;;9.35;4.50;;;8.00;96.50;;;;;;5014031;28;20053;-71
2023/05/03 05:30:57;;;;;;;17.02;4.45;;;8.10;96.20;;;;;;5030831;28;20376;-69
2023/05/03 05:33:23;;;;;;;13.30;4.38;;;8.20;96.10;;;;;;5030838;28;20041;-70
2023/05/03 05:35:49;;;;;;;13.70;4.68;;;8.20;96.10;;;;;;5013096;28;20030;-71
2023/05/03 05:38:17;;;;;;;8.93;4.07;;;8.30;95.90;;;;;;5030717;28;20036;-71
2023/05/03 05:40:43;;;;;;;13.10;4.70;;;8.30;95.80;;;;;;5013703;28;20033;-71
2023/05/03 05:43:09;;;;;;;10.98;4.05;;;8.40;95.80;;;;;;5013329;28;20040;-72
2023/05/03 05:45:35;;;;;;;12.52;4.53;;;8.40;95.70;;;;;;5013028;28;20103;-70
2023/05/03 05:48:01;;;;;;;16.30;5.35;;;8.50;95.40;;;;;;5030439;28;20113;-70
2023/05/03 05:50:26;;;;;;;18.20;5.05;;;8.60;95.30;;;;;;5030531;28;20034;-70
2023/05/03 05:52:52;;;;;;;13.30;4.80;;;8.70;95.20;;;;;;5031043;28;20026;-67
2023/05/03 05:55:18;;;;;;;13.88;4.60;;;8.60;95.20;;;;;;5032405;28;20542;-70
2023/05/03 05:57:44;;;;;;;11.27;4.65;;;8.70;94.80;;;;;;5016791;28;20029;-69
2023/05/03 06:00:14;;;;;;;11.98;5.22;;;8.80;94.60;;;;;;5034413;28;20087;-69
2023/05/03 06:02:43;;;;;;;14.45;4.85;;;8.90;94.50;;;;;;5034308;28;20030;-70
2023/05/03 06:05:10;;;;;;;14.77;5.20;;;9.00;94.70;;;;;;5034160;28;20328;-69
2023/05/03 06:07:36;;;;;;;16.38;4.90;;;9.00;94.40;;;;;;5034687;28;20017;-70
2023/05/03 06:10:03;;;;;;;15.35;4.75;;;9.10;94.00;;;;;;5034175;28;20711;-69
2023/05/03 06:12:29;;;;;;;9.35;4.53;;;9.10;94.10;;;;;;5033668;28;20045;-69
2023/05/03 06:14:55;;;;;;;8.52;4.30;;;9.20;93.70;;;;;;5034088;28;20055;-70
2023/05/03 06:17:22;;;;;;;10.43;4.45;;;9.20;93.60;;;;;;5033816;28;20440;-69
2023/05/03 06:19:51;;;;;;;11.23;4.40;;;9.30;93.60;;;;;;5034351;28;20032;-69
2023/05/03 06:22:16;;;;;;;12.15;4.20;;;9.40;93.50;;;;;;5033800;28;20080;-68
2023/05/03 06:24:42;;;;;;;10.25;4.03;;;9.30;93.30;;;;;;5033590;28;20037;-70
2023/05/03 06:27:08;;;;;;;14.43;4.35;;;9.40;93.30;;;;;;5016007;28;20105;-69
2023/05/03 06:29:34;;;;;;;18.85;4.57;;;9.40;93.30;;;;;;5033587;28;20045;-68
2023/05/03 06:32:00;;;;;;;15.57;5.57;;;9.50;93.30;;;;;;5033920;28;20058;-69
2023/05/03 06:34:25;;;;;;;16.30;4.72;;;9.60;93.40;;;;;;5034166;28;20364;-68
2023/05/03 06:36:51;;;;;;;13.70;3.90;;;9.70;93.20;;;;;;5016335;28;20029;-69
2023/05/03 06:39:17;;;;;;;21.83;5.38;;;9.80;93.00;;;;;;5033580;28;20045;-69
2023/05/03 06:41:43;;;;;;;31.02;6.40;;;9.90;92.90;;;;;;5033424;28;20034;-69
2023/05/03 06:44:09;;;;;;;14.38;4.80;;;10.00;92.10;;;;;;5033532;28;20075;-69
2023/05/03 06:46:34;;;;;;;19.58;3.30;;;10.20;92.20;;;;;;5033730;28;20021;-69
2023/05/03 06:49:00;;;;;;;8.65;3.20;;;10.30;91.00;;;;;;5033980;28;20029;-68
2023/05/03 06:51:28;;;;;;;6.78;3.13;;;10.60;91.40;;;;;;5016015;28;20505;-70
2023/05/03 06:53:55;;;;;;;11.95;2.75;;;11.00;91.10;;;;;;5033201;28;20045;-70
2023/05/03 06:56:21;;;;;;;27.45;11.73;;;11.50;90.40;;;;;;5034047;28;20084;-71
2023/05/03 06:58:47;;;;;;;8.35;2.78;;;12.20;90.20;;;;;;5033607;28;20032;-68
2023/05/03 07:01:13;;;;;;;4.43;1.55;;;12.80;86.40;;;;;;5015420;28;20122;-68
2023/05/03 07:03:39;;;;;;;3.88;1.10;;;13.40;82.30;;;;;;5015624;28;20064;-68
2023/05/03 07:06:05;;;;;;;6.05;1.60;;;14.00;80.60;;;;;;5014877;28;20033;-68
2023/05/03 07:08:30;;;;;;;6.13;1.25;;;14.70;79.00;;;;;;5015351;28;20040;-69
2023/05/03 07:10:56;;;;;;;6.43;1.50;;;15.00;75.70;;;;;;5032950;28;20029;-69
2023/05/03 07:13:22;;;;;;;6.60;3.08;;;15.40;75.00;;;;;;5015879;28;20026;-68
2023/05/03 07:15:48;;;;;;;4.55;1.35;;;15.90;73.00;;;;;;5032797;28;20030;-70
2023/05/03 07:18:14;;;;;;;3.88;0.85;;;16.40;71.30;;;;;;5033075;28;20120;-70
2023/05/03 07:20:39;;;;;;;5.80;1.13;;;16.70;69.80;;;;;;5032855;28;20566;-70
2023/05/03 07:23:06;;;;;;;9.88;1.88;;;16.70;66.20;;;;;;5032586;28;20509;-70
2023/05/03 07:25:34;;;;;;;6.20;1.33;;;16.70;68.10;;;;;;5033112;28;20021;-69
2023/05/03 07:28:00;;;;;;;6.63;1.13;;;16.80;66.40;;;;;;5032794;28;20029;-70
2023/05/03 07:30:26;;;;;;;2.28;0.60;;;16.70;66.50;;;;;;5014918;28;20041;-70
2023/05/03 07:32:51;;;;;;;5.75;1.13;;;16.20;66.20;;;;;;5032607;28;20382;-69
2023/05/03 07:35:18;;;;;;;6.53;1.30;;;15.80;65.50;;;;;;5032755;28;20045;-71
2023/05/03 07:37:44;;;;;;;6.40;1.20;;;15.50;66.00;;;;;;5033173;28;20143;-68
2023/05/03 07:40:10;;;;;;;4.75;1.20;;;15.00;66.20;;;;;;5015292;28;20382;-70
2023/05/03 07:42:36;;;;;;;25.42;2.38;;;14.90;67.10;;;;;;5015334;28;20030;-69
2023/05/03 07:45:02;;;;;;;7.18;2.10;;;14.70;67.20;;;;;;5032391;28;20030;-69
2023/05/03 07:47:28;;;;;;;6.60;1.58;;;14.70;67.80;;;;;;5032470;28;20112;-69
2023/05/03 07:49:54;;;;;;;4.68;1.40;;;14.80;67.60;;;;;;5032705;28;20025;-69
2023/05/03 07:52:19;;;;;;;6.68;1.27;;;15.10;68.00;;;;;;5032394;28;20356;-69
2023/05/03 07:54:45;;;;;;;3.97;1.33;;;15.00;66.70;;;;;;5032579;28;20036;-68
2023/05/03 07:57:13;;;;;;;1.92;0.90;;;14.90;66.80;;;;;;5032498;28;20034;-67
2023/05/03 07:59:39;;;;;;;9.45;1.60;;;14.90;67.00;;;;;;5032293;28;20112;-67
2023/05/03 08:02:04;;;;;;;3.97;1.13;;;15.30;67.60;;;;;;5032003;28;20100;-68
2023/05/03 08:04:30;;;;;;;7.25;2.08;;;16.30;67.30;;;;;;5015098;28;20399;-68
2023/05/03 08:06:59;;;;;;;5.97;1.20;;;16.60;63.10;;;;;;5014298;28;20033;-70
2023/05/03 08:09:27;;;;;;;6.32;1.17;;;17.60;63.70;;;;;;5031581;28;20521;-71
2023/05/03 08:11:53;;;;;;;3.97;1.08;;;18.40;61.90;;;;;;5031732;28;20430;-69
2023/05/03 08:14:19;;;;;;;5.15;1.15;;;18.80;60.40;;;;;;5014276;28;20040;-70
2023/05/03 08:16:45;;;;;;;6.35;1.33;;;18.70;59.00;;;;;;5032206;28;20021;-71
2023/05/03 08:19:10;;;;;;;4.63;1.10;;;18.00;59.50;;;;;;5030632;28;20486;-71
2023/05/03 08:21:36;;;;;;;4.00;1.17;;;17.60;58.70;;;;;;5031534;28;20033;-71
2023/05/03 08:24:04;;;;;;;5.50;1.10;;;17.30;59.20;;;;;;5031364;28;20041;-71
2023/05/03 08:26:30;;;;;;;6.72;1.20;;;17.70;60.50;;;;;;5031449;28;20040;-70
2023/05/03 08:28:56;;;;;;;3.13;1.35;;;17.80;58.80;;;;;;5031540;28;20018;-69
2023/05/03 08:31:22;;;;;;;4.93;0.88;;;17.80;58.00;;;;;;5031416;28;20471;-69
2023/05/03 08:33:47;;;;;;;2.78;1.15;;;17.40;57.90;;;;;;5013752;28;20068;-71
2023/05/03 08:36:13;;;;;;;5.68;1.95;;;17.80;58.20;;;;;;5031168;28;20373;-70
2023/05/03 08:38:40;;;;;;;3.10;1.60;;;19.20;57.20;;;;;;5031147;28;20030;-70
2023/05/03 08:41:26;;;;;;;3.88;1.08;;;19.90;55.30;;;;;;5031052;28;20451;-70
2023/05/03 08:43:53;;;;;;;4.18;1.13;;;21.70;55.30;;;;;;5014051;28;20021;-70
2023/05/03 08:46:19;;;;;;;6.07;1.47;;;22.50;52.60;;;;;;5013790;28;20026;-69
2023/05/03 08:48:49;;;;;;;6.00;1.10;;;22.90;52.60;;;;;;5031062;28;20034;-69
2023/05/03 08:51:18;;;;;;;5.13;0.90;;;23.60;51.30;;;;;;5030832;28;20049;-71
2023/05/03 08:53:45;;;;;;;3.42;1.10;;;23.90;49.40;;;;;;5030659;28;20068;-70
2023/05/03 08:56:15;;;;;;;9.85;6.30;;;24.60;48.60;;;;;;5013588;28;20100;-71
2023/05/03 08:58:41;;;;;;;2.80;1.00;;;25.00;47.10;;;;;;5013618;28;20314;-70
2023/05/03 09:01:08;;;;;;;3.03;1.00;;;25.20;44.70;;;;;;5035141;28;20033;-70
2023/05/03 09:03:35;;;;;;;5.78;1.10;;;25.40;45.00;;;;;;5013235;28;20068;-72
2023/05/03 09:06:01;;;;;;;4.80;1.00;;;25.60;43.90;;;;;;5030929;28;20044;-71
2023/05/03 09:08:28;;;;;;;9.57;1.50;;;26.20;41.90;;;;;;5013372;28;20049;-71
2023/05/03 09:10:53;;;;;;;7.70;1.55;;;26.80;41.90;;;;;;5031255;28;20395;-71
2023/05/03 09:13:19;;;;;;;14.43;2.05;;;26.80;41.40;;;;;;5013447;28;20449;-71
2023/05/03 09:15:56;;;;;;;8.73;1.48;;;26.90;41.80;;;;;;5013345;28;20476;-71
2023/05/03 09:18:22;;;;;;;6.55;1.60;;;27.00;40.30;;;;;;5030865;28;20029;-72
2023/05/03 09:20:52;;;;;;;5.10;1.00;;;27.20;40.50;;;;;;5030770;28;20037;-72
2023/05/03 09:23:27;;;;;;;2.60;1.10;;;27.70;39.70;;;;;;5030782;28;20029;-70
2023/05/03 09:25:53;;;;;;;5.00;1.10;;;27.40;38.80;;;;;;5031078;28;20528;-71
2023/05/03 09:28:20;;;;;;;4.65;1.40;;;27.20;38.60;;;;;;5013322;28;20037;-71
2023/05/03 09:30:47;;;;;;;9.98;3.03;;;27.30;38.50;;;;;;5029898;28;20041;-71
2023/05/03 09:33:20;;;;;;;3.10;1.30;;;27.30;38.20;;;;;;5030486;28;20577;-70
2023/05/03 09:36:00;;;;;;;7.18;1.00;;;27.40;38.40;;;;;;5030753;28;20033;-70
2023/05/03 09:38:28;;;;;;;6.50;1.20;;;27.50;38.10;;;;;;5012869;28;20037;-71
2023/05/03 09:40:54;;;;;;;3.05;0.98;;;26.70;36.00;;;;;;5031089;28;20068;-71
2023/05/03 09:43:19;;;;;;;3.58;1.02;;;27.60;37.10;;;;;;5030431;28;20025;-71
2023/05/03 09:45:45;;;;;;;5.13;1.38;;;26.30;36.70;;;;;;5030392;28;20116;-71
2023/05/03 09:48:12;;;;;;;5.88;1.48;;;27.70;37.60;;;;;;5030366;28;20046;-71
2023/05/03 09:50:39;;;;;;;5.50;1.30;;;27.90;36.80;;;;;;5030506;28;20038;-71
2023/05/03 09:53:06;;;;;;;4.78;1.08;;;27.80;36.60;;;;;;5030287;28;20033;-70
2023/05/03 09:55:41;;;;;;;3.93;1.30;;;27.40;36.40;;;;;;5030810;28;20032;-70
2023/05/03 09:58:07;;;;;;;8.57;1.58;;;27.80;36.40;;;;;;5030221;28;20269;-70
2023/05/03 10:00:41;;;;;;;6.75;1.35;;;27.60;36.40;;;;;;5033877;28;20116;-70
2023/05/03 10:03:11;;;;;;;3.60;1.10;;;27.20;36.50;;;;;;5030152;28;20044;-71
2023/05/03 10:05:44;;;;;;;5.20;1.77;;;26.10;36.80;;;;;;5013505;28;20476;-70
2023/05/03 10:08:14;;;;;;;3.00;1.00;;;26.10;37.30;;;;;;5030168;28;20025;-70
2023/05/03 10:10:42;;;;;;;4.70;1.40;;;25.50;37.50;;;;;;5030811;28;20104;-72
2023/05/03 10:13:08;;;;;;;3.15;1.23;;;25.50;37.60;;;;;;5029921;28;20094;-71
2023/05/03 10:15:36;;;;;;;10.68;1.77;;;24.90;37.00;;;;;;5030255;28;20033;-70
2023/05/03 10:18:05;;;;;;;;;;;24.90;37.90;;;;;;5030668;28;20322;-68
2023/05/03 10:20:57;;;;;;;7.90;1.20;;;24.60;37.60;;;;;;5013218;28;20338;-68
2023/05/03 10:23:22;;;;;;;8.35;1.40;;;23.80;38.00;;;;;;5024858;28;20468;-69
2023/05/03 10:26:06;;;;;;;3.38;1.40;;;23.40;38.80;;;;;;5030281;28;20029;-69
2023/05/03 10:28:33;;;;;;;3.72;1.10;;;22.50;39.50;;;;;;5030058;28;20034;-68
2023/05/03 10:30:58;;;;;;;10.38;2.72;;;22.30;39.50;;;;;;5030178;28;20045;-69
2023/05/03 10:33:33;;;;;;;6.53;1.38;;;21.70;40.00;;;;;;5030180;28;20038;-68
2023/05/03 10:36:09;;;;;;;4.68;1.33;;;21.20;40.10;;;;;;5029960;28;20495;-70
2023/05/03 10:38:37;;;;;;;3.13;1.00;;;20.90;40.50;;;;;;5030060;28;20041;-69
2023/05/03 10:41:05;;;;;;;;;;;21.00;40.50;;;;;;5012911;28;20025;-70
2023/05/03 10:43:34;;;;;;;8.02;1.50;;;20.70;40.60;;;;;;5016612;28;20508;-69
2023/05/03 10:46:04;;;;;;;5.72;2.20;;;20.50;40.30;;;;;;5033544;28;20026;-70
2023/05/03 10:48:31;;;;;;;5.57;1.55;;;20.50;40.60;;;;;;5033526;28;20591;-70
2023/05/03 10:51:17;;;;;;;4.45;1.08;;;20.30;40.80;;;;;;5033368;28;20049;-69
2023/05/03 10:53:43;;;;;;;2.25;1.02;;;20.10;41.10;;;;;;5032983;28;20043;-70
2023/05/03 10:56:11;;;;;;;4.93;1.33;;;20.00;41.00;;;;;;5033471;28;20109;-70
2023/05/03 10:58:43;;;;;;;7.18;3.28;;;19.50;40.50;;;;;;5034090;28;20108;-70
2023/05/03 11:01:11;;;;;;;8.55;2.33;;;19.30;41.10;;;;;;5033404;28;20529;-70
2023/05/03 11:03:48;;;;;;;4.20;1.88;;;19.00;41.70;;;;;;5033282;28;20375;-70
2023/05/03 11:06:30;;;;;;;8.50;1.50;;;19.10;42.50;;;;;;5033168;28;20041;-70
2023/05/03 11:08:56;;;;;;;11.05;2.50;;;19.50;42.20;;;;;;5032802;28;20120;-70
2023/05/03 11:11:22;;;;;;;4.50;1.17;;;19.70;42.60;;;;;;5032908;28;20128;-69
2023/05/03 11:13:50;;;;;;;6.18;0.90;;;19.70;42.60;;;;;;5015912;28;20033;-70
2023/05/03 11:16:17;;;;;;;3.90;1.17;;;19.70;42.80;;;;;;5015803;28;20088;-70
2023/05/03 11:18:42;;;;;;;3.20;0.98;;;19.50;42.90;;;;;;5033611;28;20348;-69
2023/05/03 11:21:10;;;;;;;2.95;1.00;;;19.50;42.90;;;;;;5033253;28;20087;-71
2023/05/03 11:23:38;;;;;;;8.32;1.30;;;18.70;43.50;;;;;;5015427;28;20029;-70
2023/05/03 11:26:10;;;;;;;4.47;1.10;;;18.90;44.00;;;;;;5032916;28;20174;-68
2023/05/03 11:28:40;;;;;;;1.95;1.08;;;19.20;43.80;;;;;;5033437;28;20099;-70
2023/05/03 11:31:07;;;;;;;2.67;1.20;;;19.30;43.80;;;;;;5032782;28;20356;-71
2023/05/03 11:33:34;;;;;;;3.92;1.10;;;19.20;43.70;;;;;;5032689;28;20098;-70
2023/05/03 11:36:05;;;;;;;5.35;1.60;;;19.30;43.40;;;;;;5032538;28;20048;-70
2023/05/03 11:38:31;;;;;;;5.38;1.25;;;19.40;43.20;;;;;;5033375;28;20176;-71
2023/05/03 11:40:58;;;;;;;4.75;1.30;;;19.40;43.00;;;;;;5033078;28;20036;-70
2023/05/03 11:43:25;;;;;;;5.40;1.15;;;19.20;43.10;;;;;;5015126;28;20029;-70
2023/05/03 11:45:55;;;;;;;7.65;1.25;;;19.20;43.30;;;;;;5032708;28;20038;-71
2023/05/03 11:48:21;;;;;;;4.72;1.00;;;19.10;42.90;;;;;;5032493;28;20025;-70
2023/05/03 11:50:54;;;;;;;5.55;1.10;;;19.10;43.10;;;;;;5032435;28;20037;-70
2023/05/03 11:53:24;;;;;;;4.97;1.10;;;18.90;42.70;;;;;;5032372;28;20395;-71
2023/05/03 11:55:52;;;;;;;6.18;1.48;;;18.30;43.20;;;;;;5032782;28;20355;-70
2023/05/03 11:58:23;;;;;;;5.07;2.30;;;18.60;43.60;;;;;;5032095;28;20035;-69
2023/05/03 12:00:50;;;;;;;4.53;1.30;;;18.90;43.40;;;;;;5032242;28;20117;-72
2023/05/03 12:03:18;;;;;;;2.83;1.40;;;18.50;42.80;;;;;;5032043;28;20281;-71
2023/05/03 12:05:45;;;;;;;3.17;1.10;;;18.20;43.30;;;;;;5032074;28;20088;-72
2023/05/03 12:08:11;;;;;;;4.68;1.10;;;18.10;43.20;;;;;;5014559;28;20329;-71
2023/05/03 12:10:37;;;;;;;1.58;1.10;;;17.90;43.40;;;;;;5032674;28;20024;-70
2023/05/03 12:13:03;;;;;;;2.63;1.30;;;17.70;44.00;;;;;;5014225;28;20120;-72
2023/05/03 12:15:39;;;;;;;5.13;1.40;;;17.80;44.40;;;;;;5014402;28;20401;-70
2023/05/03 12:18:07;;;;;;;5.53;1.70;;;18.40;44.50;;;;;;5031521;28;20175;-70
2023/05/03 12:20:35;;;;;;;4.82;1.20;;;18.50;44.40;;;;;;5014183;28;20029;-71
2023/05/03 12:23:06;;;;;;;5.90;1.63;;;18.50;44.50;;;;;;5031590;28;20017;-70
2023/05/03 12:25:35;;;;;;;4.05;2.05;;;18.20;44.60;;;;;;5032541;28;20109;-71
2023/05/03 12:28:04;;;;;;;;;;;18.40;44.40;;;;;;5032005;28;20030;-69
2023/05/03 12:30:31;;;;;;;6.20;1.42;;;17.90;45.30;;;;;;5010464;28;20300;-70
2023/05/03 12:32:56;;;;;;;5.82;1.70;;;18.10;45.00;;;;;;5011542;28;20523;-71
2023/05/03 12:35:22;;;;;;;4.63;1.52;;;18.40;45.30;;;;;;5011593;28;20216;-70
2023/05/03 12:37:49;;;;;;;5.38;1.20;;;18.50;45.30;;;;;;5011969;28;20030;-71
2023/05/03 12:40:16;;;;;;;8.02;1.77;;;18.60;45.20;;;;;;5011402;28;20396;-70
2023/05/03 12:42:43;;;;;;;7.72;1.50;;;18.70;44.90;;;;;;5011458;28;20040;-72
2023/05/03 12:45:10;;;;;;;4.70;1.35;;;18.60;45.20;;;;;;5011268;28;20365;-69
2023/05/03 12:47:36;;;;;;;7.40;1.40;;;18.50;44.90;;;;;;5010499;28;20196;-70
2023/05/03 12:50:02;;;;;;;7.03;1.73;;;18.50;45.10;;;;;;5011475;28;20026;-72
2023/05/03 12:52:30;;;;;;;8.85;1.77;;;18.50;45.40;;;;;;5010656;28;20037;-71